createdAt,value
2016-11-01T00:00:18.406Z,99.99
2016-11-01T00:00:59.819Z,99.99
2016-11-01T00:01:41.355Z,99.99
2016-11-01T00:02:23.105Z,99.99
2016-11-01T00:03:04.756Z,99.99
2016-11-01T00:03:46.468Z,99.99
2016-11-01T00:04:28.228Z,99.99
2016-11-01T00:05:09.974Z,99.99
2016-11-01T00:07:25.170Z,99.99
2016-11-01T00:09:14.615Z,99.99
2016-11-01T00:09:56.261Z,99.99
2016-11-01T00:11:50.908Z,99.99
2016-11-01T00:12:32.638Z,99.99
2016-11-01T00:13:14.247Z,99.99
2016-11-01T00:15:14.184Z,99.99
2016-11-01T00:15:55.576Z,99.99
2016-11-01T00:16:37.311Z,99.99
2016-11-01T00:18:31.870Z,99.99
2016-11-01T00:20:31.871Z,99.99
2016-11-01T00:21:13.441Z,99.99
2016-11-01T00:21:55.010Z,99.99
2016-11-01T00:22:36.602Z,99.99
2016-11-01T00:24:36.577Z,99.99
2016-11-01T00:25:18.262Z,99.99
2016-11-01T00:25:59.905Z,99.99
2016-11-01T00:26:41.482Z,99.99
2016-11-01T00:28:30.945Z,99.99
2016-11-01T00:29:12.517Z,99.99
2016-11-01T00:29:54.104Z,99.99
2016-11-01T00:30:35.878Z,99.99
2016-11-01T00:31:17.669Z,99.99
2016-11-01T00:33:12.222Z,99.99
2016-11-01T00:33:53.956Z,99.99
2016-11-01T00:34:35.721Z,99.99
2016-11-01T00:35:17.376Z,99.99
2016-11-01T00:35:58.878Z,99.99
2016-11-01T00:37:53.555Z,99.99
2016-11-01T00:38:35.266Z,99.99
2016-11-01T00:39:16.905Z,99.99
2016-11-01T00:39:58.566Z,99.99
2016-11-01T00:40:40.275Z,99.99
2016-11-01T00:41:21.947Z,99.99
2016-11-01T00:43:16.610Z,99.99
2016-11-01T00:43:58.343Z,99.99
2016-11-01T00:44:40.056Z,99.99
2016-11-01T00:47:00.569Z,99.99
2016-11-01T00:47:42.238Z,99.99
2016-11-01T00:49:31.658Z,99.99
2016-11-01T00:50:13.232Z,99.99
2016-11-01T00:50:54.900Z,99.99
2016-11-01T00:51:36.525Z,99.99
2016-11-01T00:53:25.960Z,99.99
2016-11-01T00:54:07.691Z,99.99
2016-11-01T00:54:49.329Z,99.99
2016-11-01T00:55:31.070Z,99.99
2016-11-01T00:56:12.769Z,99.99
2016-11-01T00:56:54.428Z,99.99
2016-11-01T00:57:35.889Z,99.99
2016-11-01T00:59:35.890Z,99.99
2016-11-01T01:01:30.302Z,99.99
2016-11-01T01:02:12.033Z,99.99
2016-11-01T01:02:53.680Z,99.99
2016-11-01T01:03:35.320Z,99.99
2016-11-01T01:04:17.150Z,99.99
2016-11-01T01:04:58.951Z,99.99
2016-11-01T01:07:14.087Z,99.99
2016-11-01T01:09:03.445Z,99.99
2016-11-01T01:09:45.204Z,99.99
2016-11-01T01:10:26.829Z,99.99
2016-11-01T01:11:08.608Z,99.99
2016-11-01T01:11:50.259Z,99.99
2016-11-01T01:12:31.950Z,99.99
2016-11-01T01:13:13.707Z,99.99
2016-11-01T01:15:34.517Z,99.99
2016-11-01T01:16:15.871Z,99.99
2016-11-01T01:16:57.361Z,99.99
2016-11-01T01:18:52.003Z,99.99
2016-11-01T01:19:33.767Z,99.99
2016-11-01T01:20:15.495Z,99.99
2016-11-01T01:20:57.258Z,99.99
2016-11-01T01:21:38.996Z,99.99
2016-11-01T01:22:20.636Z,99.99
2016-11-01T01:23:02.380Z,99.99
2016-11-01T01:23:44.177Z,99.99
2016-11-01T01:24:25.888Z,99.99
2016-11-01T01:26:26.007Z,99.99
2016-11-01T01:27:07.730Z,99.99
2016-11-01T01:29:02.364Z,99.99
2016-11-01T01:30:51.785Z,99.99
2016-11-01T01:31:33.481Z,99.99
2016-11-01T01:32:15.204Z,99.99
2016-11-01T01:32:56.730Z,99.99
2016-11-01T01:34:51.465Z,99.99
2016-11-01T01:35:33.326Z,99.99
2016-11-01T01:36:14.946Z,99.99
2016-11-01T01:36:56.602Z,99.99
2016-11-01T01:38:56.550Z,99.99
2016-11-01T01:40:45.976Z,99.99
2016-11-01T01:41:27.448Z,99.99
2016-11-01T01:42:09.067Z,99.99
2016-11-01T01:42:50.644Z,99.99
2016-11-01T01:43:32.281Z,99.99
2016-11-01T01:44:14.083Z,99.99
2016-11-01T01:46:34.859Z,99.99
2016-11-01T01:48:24.259Z,99.99
2016-11-01T01:49:05.973Z,99.99
2016-11-01T01:49:47.630Z,99.99
2016-11-01T01:50:29.305Z,99.99
2016-11-01T01:52:24.072Z,99.99
2016-11-01T01:53:05.821Z,99.99
2016-11-01T01:53:47.495Z,99.99
2016-11-01T01:54:29.243Z,99.99
2016-11-01T01:56:44.737Z,99.99
2016-11-01T01:57:26.420Z,99.99
2016-11-01T01:58:08.126Z,99.99
2016-11-01T01:58:49.880Z,99.99
2016-11-01T01:59:31.495Z,99.99
2016-11-01T02:00:13.301Z,99.99
2016-11-01T02:00:54.910Z,99.99
2016-11-01T02:01:35.892Z,99.99
2016-11-01T02:02:16.426Z,99.99
2016-11-01T02:02:56.957Z,99.99
2016-11-01T02:03:37.497Z,99.99
2016-11-01T02:04:18.031Z,99.99
2016-11-01T02:04:58.571Z,99.99
2016-11-01T02:05:39.108Z,99.99
2016-11-01T02:06:19.642Z,99.99
2016-11-01T02:07:00.179Z,99.99
2016-11-01T02:07:40.712Z,99.99
2016-11-01T02:08:21.256Z,99.99
2016-11-01T02:09:01.787Z,99.99
2016-11-01T02:09:42.316Z,99.99
2016-11-01T02:10:22.853Z,99.99
2016-11-01T02:11:03.382Z,99.99
2016-11-01T02:11:43.932Z,99.99
2016-11-01T02:12:24.458Z,99.99
2016-11-01T02:13:05.001Z,99.99
2016-11-01T02:13:45.541Z,99.99
2016-11-01T02:14:26.077Z,99.99
2016-11-01T02:16:20.182Z,99.99
2016-11-01T02:17:00.718Z,99.99
2016-11-01T02:17:41.259Z,99.99
2016-11-01T02:18:21.787Z,99.99
2016-11-01T02:19:02.319Z,99.99
2016-11-01T02:19:42.862Z,99.99
2016-11-01T02:20:23.396Z,99.99
2016-11-01T02:21:03.935Z,99.99
2016-11-01T02:21:44.470Z,99.99
2016-11-01T02:22:25.012Z,99.99
2016-11-01T02:23:05.547Z,99.99
2016-11-01T02:23:46.066Z,99.99
2016-11-01T02:24:26.601Z,99.99
2016-11-01T02:25:07.149Z,99.99
2016-11-01T02:25:47.692Z,99.99
2016-11-01T02:26:28.220Z,99.99
2016-11-01T02:27:08.764Z,99.99
2016-11-01T02:27:49.293Z,99.99
2016-11-01T02:28:29.824Z,99.99
2016-11-01T02:29:10.348Z,99.99
2016-11-01T02:29:50.888Z,99.99
2016-11-01T02:30:31.421Z,99.99
2016-11-01T02:31:11.961Z,99.99
2016-11-01T02:31:52.498Z,99.99
2016-11-01T02:32:33.030Z,99.99
2016-11-01T02:33:13.558Z,99.99
2016-11-01T02:33:54.099Z,99.99
2016-11-01T02:34:34.640Z,99.99
2016-11-01T02:35:15.178Z,99.99
2016-11-01T02:35:55.695Z,99.99
2016-11-01T02:36:36.228Z,99.99
2016-11-01T02:37:16.774Z,99.99
2016-11-01T02:37:57.305Z,99.99
2016-11-01T02:38:37.844Z,99.99
2016-11-01T02:39:18.375Z,99.99
2016-11-01T02:39:58.921Z,99.99
2016-11-01T02:40:39.432Z,99.99
2016-11-01T02:41:19.966Z,99.99
2016-11-01T02:42:00.490Z,99.99
2016-11-01T02:42:41.007Z,99.99
2016-11-01T02:43:21.549Z,99.99
2016-11-01T02:44:02.079Z,99.99
2016-11-01T02:44:42.610Z,99.99
2016-11-01T02:45:23.147Z,99.99
2016-11-01T02:46:03.691Z,99.99
2016-11-01T02:46:44.227Z,99.99
2016-11-01T02:47:24.765Z,99.99
2016-11-01T02:48:05.304Z,99.99
2016-11-01T02:48:45.834Z,99.99
2016-11-01T02:49:26.367Z,99.99
2016-11-01T02:50:06.906Z,99.99
2016-11-01T02:50:47.450Z,99.99
2016-11-01T02:51:27.998Z,99.99
2016-11-01T02:52:08.545Z,99.99
2016-11-01T02:52:49.083Z,99.99
2016-11-01T02:53:29.634Z,99.99
2016-11-01T02:54:10.158Z,99.99
2016-11-01T02:54:50.694Z,99.99
2016-11-01T02:55:31.214Z,99.99
2016-11-01T02:56:11.753Z,99.99
2016-11-01T02:56:52.293Z,99.99
2016-11-01T02:57:32.840Z,99.99
2016-11-01T02:58:13.374Z,99.99
2016-11-01T02:58:53.891Z,99.99
2016-11-01T02:59:34.439Z,99.99
2016-11-01T03:00:14.979Z,99.99
2016-11-01T03:00:55.519Z,99.99
2016-11-01T03:01:36.058Z,99.99
2016-11-01T03:02:16.598Z,99.99
2016-11-01T03:02:57.120Z,99.99
2016-11-01T03:03:37.664Z,99.99
2016-11-01T03:04:18.196Z,99.99
2016-11-01T03:04:58.725Z,99.99
2016-11-01T03:05:39.264Z,99.99
2016-11-01T03:06:19.812Z,99.99
2016-11-01T03:07:00.357Z,99.99
2016-11-01T03:07:40.897Z,99.99
2016-11-01T03:08:21.439Z,99.99
2016-11-01T03:09:01.980Z,99.99
2016-11-01T03:09:42.518Z,99.99
2016-11-01T03:10:23.049Z,99.99
2016-11-01T03:11:03.594Z,99.99
2016-11-01T03:11:44.122Z,99.99
2016-11-01T03:12:24.659Z,99.99
2016-11-01T03:13:05.194Z,99.99
2016-11-01T03:13:45.734Z,99.99
2016-11-01T03:14:26.265Z,99.99
2016-11-01T03:15:06.804Z,99.99
2016-11-01T03:15:47.340Z,99.99
2016-11-01T03:16:27.876Z,99.99
2016-11-01T03:17:08.415Z,99.99
2016-11-01T03:17:48.960Z,99.99
2016-11-01T03:18:29.499Z,99.99
2016-11-01T03:19:10.033Z,99.99
2016-11-01T03:19:50.578Z,99.99
2016-11-01T03:20:31.114Z,99.99
2016-11-01T03:21:11.642Z,99.99
2016-11-01T03:21:52.176Z,99.99
2016-11-01T03:22:32.712Z,99.99
2016-11-01T03:23:13.252Z,99.99
2016-11-01T03:23:53.769Z,99.99
2016-11-01T03:24:34.309Z,99.99
2016-11-01T03:25:14.843Z,99.99
2016-11-01T03:25:55.382Z,99.99
2016-11-01T03:26:35.928Z,99.99
2016-11-01T03:27:16.467Z,99.99
2016-11-01T03:27:56.989Z,99.99
2016-11-01T03:28:37.523Z,99.99
2016-11-01T03:29:18.041Z,99.99
2016-11-01T03:29:58.581Z,99.99
2016-11-01T03:30:39.123Z,99.99
2016-11-01T03:31:19.662Z,99.99
2016-11-01T03:32:00.196Z,99.99
2016-11-01T03:32:40.726Z,99.99
2016-11-01T03:33:21.268Z,99.99
2016-11-01T03:34:01.802Z,99.99
2016-11-01T03:34:42.348Z,99.99
2016-11-01T03:35:22.884Z,99.99
2016-11-01T03:36:03.423Z,99.99
2016-11-01T03:36:43.966Z,99.99
2016-11-01T03:37:24.506Z,99.99
2016-11-01T03:38:05.042Z,99.99
2016-11-01T03:38:45.572Z,99.99
2016-11-01T03:39:26.094Z,99.99
2016-11-01T03:40:06.641Z,99.99
2016-11-01T03:40:47.188Z,99.99
2016-11-01T03:41:27.716Z,99.99
2016-11-01T03:42:08.249Z,99.99
2016-11-01T03:42:48.773Z,99.99
2016-11-01T03:43:29.303Z,99.99
2016-11-01T03:44:09.832Z,99.99
2016-11-01T03:44:50.362Z,99.99
2016-11-01T03:45:30.908Z,99.99
2016-11-01T03:46:11.437Z,99.99
2016-11-01T03:46:51.969Z,99.99
2016-11-01T03:47:32.507Z,99.99
2016-11-01T03:48:13.036Z,99.99
2016-11-01T03:48:53.576Z,99.99
2016-11-01T03:49:34.110Z,99.99
2016-11-01T03:50:14.653Z,99.99
2016-11-01T03:50:55.181Z,99.99
2016-11-01T03:51:35.703Z,99.99
2016-11-01T03:52:16.236Z,99.99
2016-11-01T03:52:56.761Z,99.99
2016-11-01T03:53:37.302Z,99.99
2016-11-01T03:54:17.833Z,99.99
2016-11-01T03:54:58.382Z,99.99
2016-11-01T03:55:38.913Z,99.99
2016-11-01T03:56:19.449Z,99.99
2016-11-01T03:56:59.986Z,99.99
2016-11-01T03:57:40.516Z,99.99
2016-11-01T03:58:21.045Z,99.99
2016-11-01T03:59:01.588Z,99.99
2016-11-01T03:59:42.115Z,99.99
2016-11-01T04:00:22.653Z,99.99
2016-11-01T04:01:03.188Z,99.99
2016-11-01T04:01:43.734Z,99.99
2016-11-01T04:02:24.263Z,99.99
2016-11-01T04:03:04.791Z,99.99
2016-11-01T04:03:45.337Z,99.99
2016-11-01T04:04:25.866Z,99.99
2016-11-01T04:05:06.409Z,99.99
2016-11-01T04:05:46.943Z,99.99
2016-11-01T04:06:27.490Z,99.99
2016-11-01T04:07:08.037Z,99.99
2016-11-01T04:07:48.589Z,99.99
2016-11-01T04:08:29.115Z,99.99
2016-11-01T04:09:09.644Z,99.99
2016-11-01T04:09:50.181Z,99.99
2016-11-01T04:10:30.723Z,99.99
2016-11-01T04:11:11.264Z,99.99
2016-11-01T04:11:51.813Z,99.99
2016-11-01T04:12:32.355Z,99.99
2016-11-01T04:13:12.886Z,99.99
2016-11-01T04:13:53.429Z,99.99
2016-11-01T04:14:33.950Z,99.99
2016-11-01T04:15:14.500Z,99.99
2016-11-01T04:15:55.038Z,99.99
2016-11-01T04:16:35.577Z,99.99
2016-11-01T04:17:16.107Z,99.99
2016-11-01T04:17:56.644Z,99.99
2016-11-01T04:18:37.184Z,99.99
2016-11-01T04:19:17.723Z,99.99
2016-11-01T04:19:58.259Z,99.99
2016-11-01T04:20:38.782Z,99.99
2016-11-01T04:21:19.321Z,99.99
2016-11-01T04:21:59.859Z,99.99
2016-11-01T04:22:40.379Z,99.99
2016-11-01T04:23:20.969Z,99.99
2016-11-01T04:24:01.664Z,99.99
2016-11-01T04:24:42.197Z,99.99
2016-11-01T04:25:22.725Z,99.99
2016-11-01T04:26:03.279Z,99.99
2016-11-01T04:26:43.822Z,99.99
2016-11-01T04:27:24.367Z,99.99
2016-11-01T04:28:04.907Z,99.99
2016-11-01T04:28:45.433Z,99.99
2016-11-01T04:29:26.147Z,99.99
2016-11-01T04:30:06.674Z,99.99
2016-11-01T04:30:47.204Z,99.99
2016-11-01T04:31:27.741Z,99.99
2016-11-01T04:32:08.276Z,99.99
2016-11-01T04:32:48.795Z,99.99
2016-11-01T04:33:29.338Z,99.99
2016-11-01T04:34:09.889Z,99.99
2016-11-01T04:34:50.562Z,99.99
2016-11-01T04:35:31.110Z,99.99
2016-11-01T04:36:11.640Z,99.99
2016-11-01T04:36:52.173Z,99.99
2016-11-01T04:37:32.685Z,99.99
2016-11-01T04:38:13.218Z,99.99
2016-11-01T04:38:53.749Z,99.99
2016-11-01T04:39:34.298Z,99.99
2016-11-01T04:40:14.831Z,99.99
2016-11-01T04:40:55.375Z,99.99
2016-11-01T04:41:35.904Z,99.99
2016-11-01T04:42:16.440Z,99.99
2016-11-01T04:42:56.962Z,99.99
2016-11-01T04:43:37.511Z,99.99
2016-11-01T04:44:18.049Z,99.99
2016-11-01T04:44:58.589Z,99.99
2016-11-01T04:45:39.125Z,99.99
2016-11-01T04:46:19.655Z,99.99
2016-11-01T04:47:00.188Z,99.99
2016-11-01T04:47:40.718Z,99.99
2016-11-01T04:48:21.264Z,99.99
2016-11-01T04:49:01.803Z,99.99
2016-11-01T04:49:42.346Z,99.99
2016-11-01T04:50:22.883Z,99.99
2016-11-01T04:51:03.408Z,99.99
2016-11-01T04:51:43.937Z,99.99
2016-11-01T04:52:24.469Z,99.99
2016-11-01T04:53:05.008Z,99.99
2016-11-01T04:53:45.545Z,99.99
2016-11-01T04:54:26.063Z,99.99
2016-11-01T04:55:06.601Z,99.99
2016-11-01T04:55:47.139Z,99.99
2016-11-01T04:56:27.671Z,99.99
2016-11-01T04:57:08.207Z,99.99
2016-11-01T04:57:48.749Z,99.99
2016-11-01T04:58:29.290Z,99.99
2016-11-01T04:59:09.812Z,99.99
2016-11-01T04:59:50.342Z,99.99
2016-11-01T05:00:30.883Z,99.99
2016-11-01T05:01:11.421Z,99.99
2016-11-01T05:01:51.939Z,99.99
2016-11-01T05:02:32.489Z,99.99
2016-11-01T05:03:13.104Z,99.99
2016-11-01T05:03:53.636Z,99.99
2016-11-01T05:04:34.176Z,99.99
2016-11-01T05:05:14.718Z,99.99
2016-11-01T05:05:55.268Z,99.99
2016-11-01T05:06:35.816Z,99.99
2016-11-01T05:07:16.345Z,99.99
2016-11-01T05:07:56.873Z,99.99
2016-11-01T05:08:37.412Z,99.99
2016-11-01T05:09:17.942Z,99.99
2016-11-01T05:09:58.483Z,99.99
2016-11-01T05:10:39.103Z,99.99
2016-11-01T05:11:19.640Z,99.99
2016-11-01T05:12:00.167Z,99.99
2016-11-01T05:12:40.704Z,99.99
2016-11-01T05:13:21.429Z,99.99
2016-11-01T05:14:01.965Z,99.99
2016-11-01T05:14:42.506Z,99.99
2016-11-01T05:15:23.035Z,99.99
2016-11-01T05:16:03.578Z,99.99
2016-11-01T05:16:44.098Z,99.99
2016-11-01T05:17:24.643Z,99.99
2016-11-01T05:18:05.235Z,99.99
2016-11-01T05:18:45.766Z,99.99
2016-11-01T05:19:26.316Z,99.99
2016-11-01T05:20:06.848Z,99.99
2016-11-01T05:20:47.398Z,99.99
2016-11-01T05:21:27.947Z,99.99
2016-11-01T05:22:08.495Z,99.99
2016-11-01T05:22:49.037Z,99.99
2016-11-01T05:23:29.580Z,99.99
2016-11-01T05:24:10.120Z,99.99
2016-11-01T05:24:50.657Z,99.99
2016-11-01T05:25:31.191Z,99.99
2016-11-01T05:26:11.781Z,99.99
2016-11-01T05:26:52.264Z,99.99
2016-11-01T05:27:32.801Z,99.99
2016-11-01T05:28:13.342Z,99.99
2016-11-01T05:28:53.868Z,99.99
2016-11-01T05:29:34.389Z,99.99
2016-11-01T05:30:14.927Z,99.99
2016-11-01T05:30:55.447Z,99.99
2016-11-01T05:31:35.985Z,99.99
2016-11-01T05:32:16.518Z,99.99
2016-11-01T05:32:57.048Z,99.99
2016-11-01T05:33:37.574Z,99.99
2016-11-01T05:34:18.112Z,99.99
2016-11-01T05:34:58.647Z,99.99
2016-11-01T05:35:39.188Z,99.99
2016-11-01T05:36:19.715Z,99.99
2016-11-01T05:37:00.261Z,99.99
2016-11-01T05:37:40.784Z,99.99
2016-11-01T05:38:21.326Z,99.99
2016-11-01T05:39:01.856Z,99.99
2016-11-01T05:39:42.411Z,99.99
2016-11-01T05:40:22.955Z,99.99
2016-11-01T05:41:03.543Z,99.99
2016-11-01T05:41:44.156Z,99.99
2016-11-01T05:42:24.692Z,99.99
2016-11-01T05:43:05.237Z,99.99
2016-11-01T05:43:45.756Z,99.99
2016-11-01T05:44:26.298Z,99.99
2016-11-01T05:45:06.834Z,99.99
2016-11-01T05:45:47.354Z,99.99
2016-11-01T05:46:27.877Z,99.99
2016-11-01T05:47:08.411Z,99.99
2016-11-01T05:47:48.947Z,99.99
2016-11-01T05:48:29.472Z,99.99
2016-11-01T05:49:10.012Z,99.99
2016-11-01T05:49:50.550Z,99.99
2016-11-01T05:50:31.092Z,99.99
2016-11-01T05:51:11.633Z,99.99
2016-11-01T05:51:52.178Z,99.99
2016-11-01T05:52:32.713Z,99.99
2016-11-01T05:53:13.228Z,99.99
2016-11-01T05:53:53.772Z,99.99
2016-11-01T05:54:34.308Z,99.99
2016-11-01T05:55:14.829Z,99.99
2016-11-01T05:55:55.362Z,99.99
2016-11-01T05:56:35.889Z,99.99
2016-11-01T05:57:16.420Z,99.99
2016-11-01T05:57:56.960Z,99.99
2016-11-01T05:58:37.517Z,99.99
2016-11-01T05:59:18.054Z,99.99
2016-11-01T05:59:58.597Z,99.99
2016-11-01T06:00:39.124Z,99.99
2016-11-01T06:01:19.651Z,99.99
2016-11-01T06:02:00.172Z,99.99
2016-11-01T06:02:40.715Z,99.99
2016-11-01T06:03:21.261Z,99.99
2016-11-01T06:04:01.796Z,99.99
2016-11-01T06:04:42.335Z,99.99
2016-11-01T06:05:22.865Z,99.99
2016-11-01T06:06:03.394Z,99.99
2016-11-01T06:06:43.922Z,99.99
2016-11-01T06:07:24.466Z,99.99
2016-11-01T06:08:05.011Z,99.99
2016-11-01T06:08:45.544Z,99.99
2016-11-01T06:09:26.077Z,99.99
2016-11-01T06:10:06.605Z,99.99
2016-11-01T06:10:47.141Z,99.99
2016-11-01T06:11:27.675Z,99.99
2016-11-01T06:12:08.216Z,99.99
2016-11-01T06:12:48.756Z,99.99
2016-11-01T06:13:29.292Z,99.99
2016-11-01T06:14:09.841Z,99.99
2016-11-01T06:14:50.373Z,99.99
2016-11-01T06:15:30.916Z,99.99
2016-11-01T06:16:11.432Z,99.99
2016-11-01T06:16:51.968Z,99.99
2016-11-01T06:17:32.504Z,99.99
2016-11-01T06:18:13.024Z,99.99
2016-11-01T06:18:53.557Z,99.99
2016-11-01T06:19:34.090Z,99.99
2016-11-01T06:20:14.631Z,99.99
2016-11-01T06:20:55.184Z,99.99
2016-11-01T06:21:35.732Z,99.99
2016-11-01T06:22:16.284Z,99.99
2016-11-01T06:22:56.829Z,99.99
2016-11-01T06:23:37.376Z,99.99
2016-11-01T06:24:17.911Z,99.99
2016-11-01T06:24:58.459Z,99.99
2016-11-01T06:25:38.980Z,99.99
2016-11-01T06:26:19.508Z,99.99
2016-11-01T06:27:00.058Z,99.99
2016-11-01T06:27:40.598Z,99.99
2016-11-01T06:28:21.136Z,99.99
2016-11-01T06:29:01.677Z,99.99
2016-11-01T06:29:42.222Z,99.99
2016-11-01T06:30:22.768Z,99.99
2016-11-01T06:31:03.313Z,99.99
2016-11-01T06:31:43.840Z,99.99
2016-11-01T06:32:24.402Z,99.99
2016-11-01T06:33:04.948Z,99.99
2016-11-01T06:33:45.498Z,99.99
2016-11-01T06:34:26.097Z,99.99
2016-11-01T06:35:06.641Z,99.99
2016-11-01T06:35:47.182Z,99.99
2016-11-01T06:36:27.716Z,99.99
2016-11-01T06:37:08.371Z,99.99
2016-11-01T06:37:48.822Z,99.99
2016-11-01T06:38:29.362Z,99.99
2016-11-01T06:39:09.883Z,99.99
2016-11-01T06:39:50.431Z,99.99
2016-11-01T06:40:30.948Z,99.99
2016-11-01T06:41:11.503Z,99.99
2016-11-01T06:41:52.042Z,99.99
2016-11-01T06:42:32.584Z,99.99
2016-11-01T06:43:13.124Z,99.99
2016-11-01T06:43:53.663Z,99.99
2016-11-01T06:44:34.199Z,99.99
2016-11-01T06:45:14.721Z,99.99
2016-11-01T06:45:55.252Z,99.99
2016-11-01T06:46:35.783Z,99.99
2016-11-01T06:47:16.325Z,99.99
2016-11-01T06:47:56.863Z,99.99
2016-11-01T06:48:37.404Z,99.99
2016-11-01T06:49:17.936Z,99.99
2016-11-01T06:49:58.473Z,99.99
2016-11-01T06:50:39.001Z,99.99
2016-11-01T06:51:19.546Z,99.99
2016-11-01T06:52:00.079Z,99.99
2016-11-01T06:52:40.596Z,99.99
2016-11-01T06:53:21.122Z,99.99
2016-11-01T06:54:01.643Z,99.99
2016-11-01T06:54:42.183Z,99.99
2016-11-01T06:55:22.720Z,99.99
2016-11-01T06:56:03.263Z,99.99
2016-11-01T06:56:43.851Z,99.99
2016-11-01T06:57:24.633Z,99.99
2016-11-01T06:58:05.166Z,99.99
2016-11-01T06:58:45.680Z,99.99
2016-11-01T06:59:26.221Z,99.99
2016-11-01T07:00:06.747Z,99.99
2016-11-01T07:00:47.269Z,99.99
2016-11-01T07:01:27.805Z,99.99
2016-11-01T07:02:08.353Z,99.99
2016-11-01T07:02:48.856Z,99.99
2016-11-01T07:03:29.397Z,99.99
2016-11-01T07:04:09.922Z,99.99
2016-11-01T07:04:50.440Z,99.99
2016-11-01T07:05:30.957Z,99.99
2016-11-01T07:06:11.489Z,99.99
2016-11-01T07:06:52.050Z,99.99
2016-11-01T07:07:32.593Z,99.99
2016-11-01T07:08:13.114Z,99.99
2016-11-01T07:08:53.655Z,99.99
2016-11-01T07:09:34.217Z,99.99
2016-11-01T07:10:14.758Z,99.99
2016-11-01T07:10:55.299Z,99.99
2016-11-01T07:11:35.822Z,99.99
2016-11-01T07:12:16.351Z,99.99
2016-11-01T07:12:56.876Z,99.99
2016-11-01T07:13:37.419Z,99.99
2016-11-01T07:14:17.961Z,99.99
2016-11-01T07:14:58.507Z,99.99
2016-11-01T07:15:39.061Z,99.99
2016-11-01T07:16:19.598Z,99.99
2016-11-01T07:17:00.134Z,99.99
2016-11-01T07:17:40.727Z,99.99
2016-11-01T07:18:21.488Z,99.99
2016-11-01T07:19:01.964Z,99.99
2016-11-01T07:19:42.491Z,99.99
2016-11-01T07:20:23.030Z,99.99
2016-11-01T07:21:03.567Z,99.99
2016-11-01T07:21:44.107Z,99.99
2016-11-01T07:22:24.643Z,99.99
2016-11-01T07:23:05.177Z,99.99
2016-11-01T07:23:45.687Z,99.99
2016-11-01T07:24:26.265Z,99.99
2016-11-01T07:25:06.793Z,99.99
2016-11-01T07:25:47.337Z,99.99
2016-11-01T07:26:27.948Z,99.99
2016-11-01T07:27:08.698Z,99.99
2016-11-01T07:27:49.334Z,99.99
2016-11-01T07:28:29.855Z,99.99
2016-11-01T07:29:10.404Z,99.99
2016-11-01T07:29:51.027Z,99.99
2016-11-01T07:30:31.568Z,99.99
2016-11-01T07:31:12.133Z,99.99
2016-11-01T07:31:52.666Z,99.99
2016-11-01T07:32:33.193Z,99.99
2016-11-01T07:33:13.731Z,99.99
2016-11-01T07:33:54.361Z,99.99
2016-11-01T07:34:35.051Z,99.99
2016-11-01T07:35:15.582Z,99.99
2016-11-01T07:35:56.112Z,99.99
2016-11-01T07:36:36.660Z,99.99
2016-11-01T07:37:17.327Z,99.99
2016-11-01T07:37:57.863Z,99.99
2016-11-01T07:38:38.441Z,99.99
2016-11-01T07:39:18.973Z,99.99
2016-11-01T07:39:59.520Z,99.99
2016-11-01T07:40:40.053Z,99.99
2016-11-01T07:41:20.830Z,99.99
2016-11-01T07:42:01.364Z,99.99
2016-11-01T07:42:41.905Z,99.99
2016-11-01T07:43:22.447Z,99.99
2016-11-01T07:44:02.989Z,99.99
2016-11-01T07:44:43.566Z,99.99
2016-11-01T07:45:24.112Z,99.99
2016-11-01T07:46:04.642Z,99.99
2016-11-01T07:46:45.176Z,99.99
2016-11-01T07:47:25.708Z,99.99
2016-11-01T07:48:06.247Z,99.99
2016-11-01T07:48:46.779Z,99.99
2016-11-01T07:49:27.357Z,99.99
2016-11-01T07:50:07.898Z,99.99
2016-11-01T07:50:48.439Z,99.99
2016-11-01T07:51:28.977Z,99.99
2016-11-01T07:52:09.516Z,99.99
2016-11-01T07:52:50.063Z,99.99
2016-11-01T07:53:30.617Z,99.99
2016-11-01T07:54:11.140Z,99.99
2016-11-01T07:54:51.692Z,99.99
2016-11-01T07:55:32.388Z,99.99
2016-11-01T07:56:12.913Z,99.99
2016-11-01T07:56:53.437Z,99.99
2016-11-01T07:57:33.969Z,99.99
2016-11-01T07:58:14.513Z,99.99
2016-11-01T07:58:55.044Z,99.99
2016-11-01T07:59:35.582Z,99.99
2016-11-01T08:00:16.156Z,99.99
2016-11-01T08:00:56.704Z,99.99
2016-11-01T08:01:37.245Z,99.99
2016-11-01T08:02:17.782Z,99.99
2016-11-01T08:02:58.323Z,99.99
2016-11-01T08:03:38.848Z,99.99
2016-11-01T08:04:19.404Z,99.99
2016-11-01T08:05:01.741Z,99.99
2016-11-01T08:05:41.653Z,99.99
2016-11-01T08:06:22.178Z,99.99
2016-11-01T08:07:02.964Z,99.99
2016-11-01T08:07:43.391Z,99.99
2016-11-01T08:08:23.922Z,99.99
2016-11-01T08:09:04.447Z,99.99
2016-11-01T08:09:44.984Z,99.99
2016-11-01T08:10:25.523Z,99.99
2016-11-01T08:11:06.037Z,99.99
2016-11-01T08:11:46.565Z,99.99
2016-11-01T08:12:27.097Z,99.99
2016-11-01T08:13:07.639Z,99.99
2016-11-01T08:13:48.159Z,99.99
2016-11-01T08:14:28.681Z,99.99
2016-11-01T08:15:09.200Z,99.99
2016-11-01T08:15:49.748Z,99.99
2016-11-01T08:16:30.290Z,99.99
2016-11-01T08:17:10.836Z,99.99
2016-11-01T08:17:51.363Z,99.99
2016-11-01T08:18:31.897Z,99.99
2016-11-01T08:19:12.419Z,99.99
2016-11-01T08:19:52.939Z,99.99
2016-11-01T08:20:33.481Z,99.99
2016-11-01T08:21:13.979Z,99.99
2016-11-01T08:21:54.502Z,99.99
2016-11-01T08:22:35.012Z,99.99
2016-11-01T08:23:15.550Z,99.99
2016-11-01T08:23:56.082Z,99.99
2016-11-01T08:24:36.597Z,99.99
2016-11-01T08:25:17.124Z,99.99
2016-11-01T08:25:57.631Z,99.99
2016-11-01T08:26:38.168Z,99.99
2016-11-01T08:27:18.703Z,99.99
2016-11-01T08:27:59.236Z,99.99
2016-11-01T08:28:39.783Z,99.99
2016-11-01T08:29:20.323Z,99.99
2016-11-01T08:30:00.853Z,99.99
2016-11-01T08:30:41.385Z,99.99
2016-11-01T08:31:21.906Z,99.99
2016-11-01T08:32:02.446Z,99.99
2016-11-01T08:32:42.970Z,99.99
2016-11-01T08:33:23.498Z,99.99
2016-11-01T08:34:04.029Z,99.99
2016-11-01T08:34:44.559Z,99.99
2016-11-01T08:35:25.087Z,99.99
2016-11-01T08:36:05.606Z,99.99
2016-11-01T08:36:46.153Z,99.99
2016-11-01T08:37:26.687Z,99.99
2016-11-01T08:38:07.215Z,99.99
2016-11-01T08:38:47.753Z,99.99
2016-11-01T08:39:28.302Z,99.99
2016-11-01T08:40:08.840Z,99.99
2016-11-01T08:40:49.392Z,99.99
2016-11-01T08:41:29.934Z,99.99
2016-11-01T08:42:10.462Z,99.99
2016-11-01T08:42:50.990Z,99.99
2016-11-01T08:43:31.523Z,99.99
2016-11-01T08:44:12.036Z,99.99
2016-11-01T08:44:52.564Z,99.99
2016-11-01T08:45:33.101Z,99.99
2016-11-01T08:46:13.631Z,99.99
2016-11-01T08:46:54.172Z,99.99
2016-11-01T08:47:34.722Z,99.99
2016-11-01T08:48:15.254Z,99.99
2016-11-01T08:48:55.767Z,99.99
2016-11-01T08:49:36.296Z,99.99
2016-11-01T08:50:16.838Z,99.99
2016-11-01T08:50:57.371Z,99.99
2016-11-01T08:51:37.912Z,99.99
2016-11-01T08:52:18.455Z,99.99
2016-11-01T08:52:58.989Z,99.99
2016-11-01T08:53:39.522Z,99.99
2016-11-01T08:54:20.068Z,99.99
2016-11-01T08:55:00.585Z,99.99
2016-11-01T08:55:41.138Z,99.99
2016-11-01T08:56:21.679Z,99.99
2016-11-01T08:57:02.220Z,99.99
2016-11-01T08:57:42.760Z,99.99
2016-11-01T08:58:23.276Z,99.99
2016-11-01T08:59:03.809Z,99.99
2016-11-01T08:59:44.359Z,99.99
2016-11-01T09:00:24.884Z,99.99
2016-11-01T09:01:05.431Z,99.99
2016-11-01T09:01:45.970Z,99.99
2016-11-01T09:02:26.512Z,99.99
2016-11-01T09:03:07.039Z,99.99
2016-11-01T09:03:47.573Z,99.99
2016-11-01T09:04:28.106Z,99.99
2016-11-01T09:05:08.643Z,99.99
2016-11-01T09:05:49.177Z,99.99
2016-11-01T09:06:29.722Z,99.99
2016-11-01T09:07:10.267Z,99.99
2016-11-01T09:07:50.863Z,99.99
2016-11-01T09:08:31.394Z,99.99
2016-11-01T09:09:11.966Z,99.99
2016-11-01T09:09:52.515Z,99.99
2016-11-01T09:10:33.085Z,99.36
2016-11-01T09:11:13.613Z,98.03
2016-11-01T09:11:54.196Z,98.32
2016-11-01T09:12:34.736Z,97.84
2016-11-01T09:13:15.271Z,97.74
2016-11-01T09:13:55.811Z,96.89
2016-11-01T09:14:36.345Z,96.89
2016-11-01T09:15:16.886Z,97.22
2016-11-01T09:15:57.430Z,97.31
2016-11-01T09:16:37.987Z,96.94
2016-11-01T09:17:18.549Z,96.36
2016-11-01T09:17:59.089Z,96.55
2016-11-01T09:18:39.618Z,95.89
2016-11-01T09:19:20.161Z,95.12
2016-11-01T09:20:00.725Z,95.32
2016-11-01T09:20:41.266Z,96.08
2016-11-01T09:21:21.798Z,94.98
2016-11-01T09:22:02.327Z,95.89
2016-11-01T09:22:42.864Z,95.08
2016-11-01T09:23:23.406Z,95.7
2016-11-01T09:24:03.953Z,96.65